createdAt,value
2019-02-15T00:00:57.934Z,26.42
2019-02-15T00:03:27.631Z,28.45
2019-02-15T00:05:57.312Z,28.38
2019-02-15T00:08:27.032Z,22.17
2019-02-15T00:10:56.698Z,27.60
2019-02-15T00:13:26.574Z,25.00
2019-02-15T00:15:56.274Z,28.65
2019-02-15T00:18:57.392Z,27.98
2019-02-15T00:21:30.243Z,27.87
2019-02-15T00:24:00.112Z,30.23
2019-02-15T00:26:29.823Z,29.98
2019-02-15T00:29:01.418Z,30.32
2019-02-15T00:31:31.183Z,26.20
2019-02-15T00:34:00.914Z,26.40
2019-02-15T00:36:30.587Z,22.22
2019-02-15T00:39:00.358Z,24.07
2019-02-15T00:41:30.111Z,25.77
2019-02-15T00:43:59.916Z,26.48
2019-02-15T00:46:38.526Z,23.27
2019-02-15T00:49:09.943Z,25.10
2019-02-15T00:52:01.827Z,25.62
2019-02-15T00:54:48.336Z,29.20
2019-02-15T00:57:29.285Z,24.27
2019-02-15T01:00:23.966Z,25.10
2019-02-15T01:03:11.575Z,29.27
2019-02-15T01:05:59.210Z,25.20
2019-02-15T01:08:56.824Z,26.17
2019-02-15T01:11:30.059Z,30.85
2019-02-15T01:13:59.787Z,28.85
2019-02-15T01:16:29.490Z,25.88
2019-02-15T01:18:59.231Z,25.30
2019-02-15T01:21:29.060Z,28.50
2019-02-15T01:23:58.983Z,27.75
2019-02-15T01:26:40.180Z,25.05
2019-02-15T01:29:47.290Z,26.27
2019-02-15T01:32:39.120Z,26.60
2019-02-15T01:35:30.849Z,27.93
2019-02-15T01:38:17.342Z,23.97
2019-02-15T01:41:09.321Z,23.83
2019-02-15T01:44:07.400Z,27.55
2019-02-15T01:46:50.164Z,28.60
2019-02-15T01:49:20.199Z,26.93
2019-02-15T01:51:50.026Z,24.43
2019-02-15T01:54:19.716Z,24.27
2019-02-15T01:56:49.471Z,24.35
2019-02-15T01:59:19.166Z,23.83
2019-02-15T02:01:48.939Z,23.65
2019-02-15T02:04:18.861Z,22.55
2019-02-15T02:06:48.530Z,22.85
2019-02-15T02:09:18.823Z,24.02
2019-02-15T02:11:48.512Z,21.27
2019-02-15T02:14:18.247Z,19.70
2019-02-15T02:16:48.013Z,19.30
2019-02-15T02:19:18.806Z,19.05
2019-02-15T02:21:48.553Z,18.98
2019-02-15T02:24:19.311Z,22.40
2019-02-15T02:26:49.105Z,17.60
2019-02-15T02:29:18.938Z,19.45
2019-02-15T02:31:52.303Z,19.32
2019-02-15T02:34:22.086Z,22.62
2019-02-15T02:36:55.915Z,23.85
2019-02-15T02:39:26.278Z,22.98
2019-02-15T02:41:56.054Z,23.77
2019-02-15T02:44:25.737Z,21.17
2019-02-15T02:46:55.573Z,22.32
2019-02-15T02:49:25.319Z,28.02
2019-02-15T02:51:55.139Z,26.75
2019-02-15T02:54:24.937Z,21.50
2019-02-15T02:56:54.788Z,21.20
2019-02-15T02:59:24.582Z,18.95
2019-02-15T03:01:54.387Z,22.73
2019-02-15T03:04:24.141Z,21.42
2019-02-15T03:06:54.986Z,22.07
2019-02-15T03:09:24.815Z,23.13
2019-02-15T03:11:54.679Z,19.70
2019-02-15T03:14:24.495Z,18.95
2019-02-15T03:16:54.407Z,22.22
2019-02-15T03:19:24.309Z,23.83
2019-02-15T03:21:54.017Z,19.98
2019-02-15T03:24:23.786Z,18.15
2019-02-15T03:26:53.562Z,22.70
2019-02-15T03:29:23.329Z,22.13
2019-02-15T03:31:53.115Z,20.20
2019-02-15T03:34:22.886Z,17.00
2019-02-15T03:37:04.279Z,22.10
2019-02-15T03:40:02.290Z,20.77
2019-02-15T03:42:32.189Z,20.68
2019-02-15T03:45:02.098Z,20.10
2019-02-15T03:47:32.003Z,17.92
2019-02-15T03:50:01.706Z,21.20
2019-02-15T03:52:31.654Z,20.95
2019-02-15T03:55:01.423Z,18.33
2019-02-15T03:57:32.122Z,22.93
2019-02-15T04:00:01.815Z,23.12
2019-02-15T04:02:31.618Z,18.40
2019-02-15T04:05:01.293Z,19.10
2019-02-15T04:07:31.138Z,19.92
2019-02-15T04:10:00.972Z,22.02
2019-02-15T04:12:32.279Z,20.32
2019-02-15T04:15:02.300Z,19.30
2019-02-15T04:17:32.110Z,19.73
2019-02-15T04:20:02.032Z,19.23
2019-02-15T04:22:31.802Z,22.37
2019-02-15T04:25:01.645Z,21.10
2019-02-15T04:27:31.523Z,18.45
2019-02-15T04:30:01.380Z,20.43
2019-02-15T04:32:31.338Z,21.82
2019-02-15T04:35:01.175Z,18.17
2019-02-15T04:37:31.002Z,21.57
2019-02-15T04:40:00.813Z,21.07
2019-02-15T04:42:31.681Z,22.70
2019-02-15T04:45:01.480Z,21.00
2019-02-15T04:47:31.351Z,20.57
2019-02-15T04:50:01.305Z,22.62
2019-02-15T04:52:31.269Z,21.73
2019-02-15T04:55:01.124Z,24.65
2019-02-15T04:57:31.127Z,22.00
2019-02-15T05:00:00.815Z,20.43
2019-02-15T05:02:32.118Z,21.82
2019-02-15T05:05:02.022Z,21.00
2019-02-15T05:07:32.016Z,19.10
2019-02-15T05:10:02.085Z,20.40
2019-02-15T05:12:31.843Z,20.20
2019-02-15T05:15:01.633Z,18.87
2019-02-15T05:17:32.704Z,19.35
2019-02-15T05:20:02.555Z,21.67
2019-02-15T05:22:32.246Z,21.27
2019-02-15T05:25:03.024Z,19.95
2019-02-15T05:27:32.800Z,19.07
2019-02-15T05:30:02.600Z,20.15
2019-02-15T05:32:32.435Z,21.12
2019-02-15T05:35:02.218Z,18.92
2019-02-15T05:37:32.063Z,20.70
2019-02-15T05:40:01.900Z,18.60
2019-02-15T05:42:31.779Z,22.93
2019-02-15T05:45:04.187Z,20.72
2019-02-15T05:47:33.227Z,26.07
2019-02-15T05:50:04.102Z,20.27
2019-02-15T05:52:33.954Z,20.12
2019-02-15T05:55:03.851Z,20.10
2019-02-15T05:57:33.655Z,19.60
2019-02-15T06:00:03.550Z,22.27
2019-02-15T06:02:33.401Z,22.40
2019-02-15T06:05:03.232Z,22.90
2019-02-15T06:07:33.171Z,20.97
2019-02-15T06:10:03.011Z,21.17
2019-02-15T06:12:32.829Z,22.00
2019-02-15T06:15:02.595Z,20.85
2019-02-15T06:17:33.252Z,23.62
2019-02-15T06:20:03.006Z,19.83
2019-02-15T06:22:32.699Z,23.55
2019-02-15T06:25:02.405Z,22.90
2019-02-15T06:27:32.243Z,23.20
2019-02-15T06:30:02.129Z,23.00
2019-02-15T06:32:32.114Z,19.10
2019-02-15T06:35:02.188Z,21.75
2019-02-15T06:37:32.150Z,24.40
2019-02-15T06:40:01.946Z,21.40
2019-02-15T06:42:31.791Z,23.35
2019-02-15T06:45:01.666Z,21.55
2019-02-15T06:47:31.450Z,28.38
2019-02-15T06:50:01.304Z,25.20
2019-02-15T06:52:31.088Z,25.15
2019-02-15T06:55:00.894Z,23.45
2019-02-15T06:57:30.684Z,25.05
2019-02-15T07:00:31.495Z,21.90
2019-02-15T07:03:06.619Z,20.52
2019-02-15T07:05:36.328Z,21.37
2019-02-15T07:08:06.099Z,24.75
2019-02-15T07:10:35.819Z,24.55
2019-02-15T07:13:05.575Z,21.65
2019-02-15T07:15:35.427Z,21.02
2019-02-15T07:18:05.226Z,23.77
2019-02-15T07:20:35.077Z,22.95
2019-02-15T07:23:04.904Z,27.62
2019-02-15T07:25:34.761Z,22.30
2019-02-15T07:28:04.576Z,23.83
2019-02-15T07:30:34.284Z,25.43
2019-02-15T07:33:04.167Z,21.35
2019-02-15T07:35:33.996Z,25.55
2019-02-15T07:38:03.730Z,24.92
2019-02-15T07:40:33.456Z,28.38
2019-02-15T07:43:03.267Z,25.40
2019-02-15T07:45:32.993Z,24.70
2019-02-15T07:48:02.893Z,28.23
2019-02-15T07:50:32.590Z,22.82
2019-02-15T07:53:02.432Z,21.27
2019-02-15T07:55:32.151Z,29.18
2019-02-15T07:58:01.968Z,29.52
2019-02-15T08:00:31.717Z,27.02
2019-02-15T08:03:01.600Z,24.65
2019-02-15T08:05:31.486Z,24.92
2019-02-15T08:08:01.202Z,27.40
2019-02-15T08:10:30.954Z,34.78
2019-02-15T08:13:00.914Z,30.10
2019-02-15T08:15:36.149Z,32.63
2019-02-15T08:18:02.072Z,27.65
2019-02-15T08:20:31.875Z,25.95
2019-02-15T08:23:01.679Z,24.65
2019-02-15T08:25:31.531Z,26.65
2019-02-15T08:28:01.350Z,27.15
2019-02-15T08:30:31.051Z,34.40
2019-02-15T08:33:00.887Z,31.00
2019-02-15T08:35:30.667Z,23.67
2019-02-15T08:38:00.567Z,22.15
2019-02-15T08:40:30.330Z,23.40
2019-02-15T08:43:00.243Z,26.67
2019-02-15T08:45:30.005Z,23.62
2019-02-15T08:47:59.876Z,21.67
2019-02-15T08:50:29.713Z,24.63
2019-02-15T08:52:59.595Z,23.83
2019-02-15T08:55:29.392Z,23.18
2019-02-15T08:57:59.211Z,19.55
2019-02-15T09:00:29.099Z,18.32
2019-02-15T09:02:58.887Z,18.10
2019-02-15T09:05:29.631Z,21.97
2019-02-15T09:07:59.446Z,19.25
2019-02-15T09:10:29.290Z,22.35
2019-02-15T09:12:59.007Z,21.23
2019-02-15T09:15:28.774Z,22.25
2019-02-15T09:17:58.471Z,20.23
2019-02-15T09:20:28.364Z,20.40
2019-02-15T09:22:58.113Z,25.60
2019-02-15T09:25:27.886Z,23.35
2019-02-15T09:28:16.705Z,25.52
2019-02-15T09:30:50.683Z,25.23
2019-02-15T09:33:20.525Z,22.20
2019-02-15T09:35:50.391Z,21.90
2019-02-15T09:38:20.175Z,24.05
2019-02-15T09:40:50.066Z,20.82
2019-02-15T09:43:20.011Z,20.45
2019-02-15T09:45:49.835Z,23.15
2019-02-15T09:48:19.695Z,21.00
2019-02-15T09:50:49.666Z,22.30
2019-02-15T09:53:19.677Z,18.77
2019-02-15T09:55:49.484Z,19.87
2019-02-15T09:58:19.315Z,20.70
2019-02-15T10:00:49.127Z,22.93
2019-02-15T10:03:19.048Z,24.72
2019-02-15T10:05:48.948Z,25.68
2019-02-15T10:08:18.710Z,20.57
2019-02-15T10:10:48.703Z,18.70
2019-02-15T10:13:18.570Z,25.77
2019-02-15T10:15:48.519Z,21.70
2019-02-15T10:18:18.227Z,21.52
2019-02-15T10:20:48.178Z,20.08
2019-02-15T10:23:17.933Z,21.10
2019-02-15T10:25:47.730Z,24.25
2019-02-15T10:28:17.596Z,32.65
2019-02-15T10:30:47.598Z,24.50
2019-02-15T10:33:18.494Z,24.25
2019-02-15T10:35:48.363Z,23.60
2019-02-15T10:38:18.146Z,32.05
2019-02-15T10:40:48.066Z,26.02
2019-02-15T10:43:17.798Z,27.10
2019-02-15T10:45:47.709Z,23.67
2019-02-15T10:48:17.574Z,21.42
2019-02-15T10:50:47.330Z,25.27
2019-02-15T10:53:17.240Z,22.77
2019-02-15T10:55:47.090Z,19.67
2019-02-15T10:58:16.803Z,26.45
2019-02-15T11:00:46.662Z,23.75
2019-02-15T11:03:16.455Z,24.95
2019-02-15T11:05:46.360Z,24.23
2019-02-15T11:08:16.077Z,22.73
2019-02-15T11:10:45.812Z,23.95
2019-02-15T11:13:15.661Z,23.73
2019-02-15T11:15:45.479Z,20.48
2019-02-15T11:18:15.301Z,23.55
2019-02-15T11:20:45.200Z,22.07
2019-02-15T11:23:14.979Z,22.82
2019-02-15T11:25:44.710Z,20.90
2019-02-15T11:28:14.511Z,21.55
2019-02-15T11:30:44.311Z,21.30
2019-02-15T11:33:15.158Z,21.23
2019-02-15T11:35:44.936Z,22.20
2019-02-15T11:38:14.963Z,20.82
2019-02-15T11:40:44.795Z,26.70
2019-02-15T11:43:15.115Z,24.85
2019-02-15T11:45:45.123Z,23.98
2019-02-15T11:48:15.071Z,26.70
2019-02-15T11:50:44.863Z,25.53
2019-02-15T11:53:14.763Z,20.27
2019-02-15T11:55:44.481Z,20.60
2019-02-15T11:58:14.371Z,24.23
2019-02-15T12:00:44.183Z,21.43
2019-02-15T12:03:14.071Z,23.62
2019-02-15T12:05:43.867Z,22.35
2019-02-15T12:08:13.581Z,22.10
2019-02-15T12:10:43.355Z,20.80
2019-02-15T12:13:13.071Z,21.83
2019-02-15T12:15:42.864Z,19.37
2019-02-15T12:18:12.658Z,22.32
2019-02-15T12:20:42.910Z,19.10
2019-02-15T12:23:12.703Z,21.00
2019-02-15T12:25:42.523Z,18.35
2019-02-15T12:28:12.387Z,17.95
2019-02-15T12:30:42.170Z,16.15
2019-02-15T12:33:12.036Z,18.98
2019-02-15T12:35:41.847Z,19.93
2019-02-15T12:38:11.708Z,19.32
2019-02-15T12:40:41.386Z,22.35
2019-02-15T12:43:11.273Z,15.75
2019-02-15T12:45:41.171Z,22.85
2019-02-15T12:48:10.918Z,21.87
2019-02-15T12:50:40.850Z,14.95
2019-02-15T12:53:10.680Z,18.92
2019-02-15T12:55:40.500Z,18.55
2019-02-15T12:58:10.262Z,17.10
2019-02-15T13:00:40.100Z,26.33
2019-02-15T13:03:09.915Z,17.55
2019-02-15T13:05:39.829Z,14.87
2019-02-15T13:08:09.603Z,16.42
2019-02-15T13:10:40.614Z,17.85
2019-02-15T13:13:10.408Z,18.45
2019-02-15T13:15:40.242Z,18.77
2019-02-15T13:18:10.152Z,15.08
2019-02-15T13:20:39.977Z,21.20
2019-02-15T13:23:09.764Z,18.50
2019-02-15T13:25:39.696Z,12.20
2019-02-15T13:28:09.460Z,13.93
2019-02-15T13:30:39.179Z,14.60
2019-02-15T13:33:08.892Z,11.70
2019-02-15T13:35:39.673Z,11.90
2019-02-15T13:38:10.575Z,12.30
2019-02-15T13:40:40.396Z,11.77
2019-02-15T13:43:12.071Z,10.55
2019-02-15T13:45:42.121Z,11.90
2019-02-15T13:48:11.914Z,10.60
2019-02-15T13:50:41.843Z,10.78
2019-02-15T13:53:11.707Z,11.20
2019-02-15T13:55:41.683Z,12.05
2019-02-15T13:58:11.500Z,13.45
2019-02-15T14:00:41.447Z,11.25
2019-02-15T14:03:11.315Z,9.60
2019-02-15T14:05:41.034Z,9.75
2019-02-15T14:08:10.823Z,10.00
2019-02-15T14:10:40.770Z,9.73
2019-02-15T14:13:10.476Z,8.63
2019-02-15T14:15:40.342Z,10.58
2019-02-15T14:18:10.196Z,9.93
2019-02-15T14:20:40.199Z,10.55
2019-02-15T14:23:09.921Z,14.05
2019-02-15T14:25:39.803Z,12.35
2019-02-15T14:28:09.652Z,10.58
2019-02-15T14:30:39.589Z,10.20
2019-02-15T14:33:09.284Z,7.37
2019-02-15T14:35:39.127Z,7.78
2019-02-15T14:38:09.017Z,11.10
2019-02-15T14:40:38.896Z,9.57
2019-02-15T14:43:08.843Z,8.10
2019-02-15T14:45:38.740Z,7.30
2019-02-15T14:48:08.570Z,8.60
2019-02-15T14:50:38.415Z,8.40
2019-02-15T14:53:08.248Z,9.27
2019-02-15T14:55:37.980Z,7.17
2019-02-15T14:58:07.787Z,7.37
2019-02-15T15:00:37.578Z,6.47
2019-02-15T15:03:07.447Z,9.73
2019-02-15T15:05:37.350Z,6.97
2019-02-15T15:08:07.218Z,7.50
2019-02-15T15:10:37.977Z,9.28
2019-02-15T15:13:08.032Z,11.78
2019-02-15T15:15:37.914Z,11.20
2019-02-15T15:18:13.026Z,7.97
2019-02-15T15:20:39.084Z,8.25
2019-02-15T15:23:08.951Z,10.73
2019-02-15T15:25:38.803Z,9.90
2019-02-15T15:28:08.667Z,11.08
2019-02-15T15:30:38.521Z,9.50
2019-02-15T15:33:08.347Z,7.15
2019-02-15T15:35:38.200Z,6.90
2019-02-15T15:38:10.546Z,9.28
2019-02-15T15:40:41.121Z,8.65
2019-02-15T15:43:10.926Z,11.75
2019-02-15T15:45:40.727Z,27.30
2019-02-15T15:48:10.652Z,10.68
2019-02-15T15:50:40.547Z,9.30
2019-02-15T15:53:10.500Z,11.08
2019-02-15T15:55:40.302Z,8.50
2019-02-15T15:58:10.178Z,8.60
2019-02-15T16:00:40.279Z,11.22
2019-02-15T16:03:10.134Z,9.28
2019-02-15T16:05:39.998Z,8.63
2019-02-15T16:08:09.878Z,7.72
2019-02-15T16:10:39.689Z,10.78
2019-02-15T16:13:09.621Z,8.55
2019-02-15T16:15:39.468Z,45.57
2019-02-15T16:18:09.323Z,13.90
2019-02-15T16:20:39.090Z,11.53
2019-02-15T16:23:08.875Z,9.35
2019-02-15T16:25:38.711Z,7.90
2019-02-15T16:28:08.684Z,8.83
2019-02-15T16:30:38.629Z,9.43
2019-02-15T16:33:10.429Z,16.07
2019-02-15T16:35:40.032Z,11.25
2019-02-15T16:38:09.937Z,8.83
2019-02-15T16:40:39.816Z,11.25
2019-02-15T16:43:09.837Z,10.98
2019-02-15T16:45:39.692Z,12.98
2019-02-15T16:48:09.671Z,10.15
2019-02-15T16:50:39.471Z,10.88
2019-02-15T16:53:09.260Z,9.83
2019-02-15T16:55:39.063Z,11.48
2019-02-15T16:58:08.893Z,9.80
2019-02-15T17:00:38.849Z,11.25
2019-02-15T17:03:08.622Z,10.23
2019-02-15T17:05:38.532Z,11.12
2019-02-15T17:08:08.299Z,16.90
2019-02-15T17:10:38.083Z,18.20
2019-02-15T17:13:07.802Z,12.70
2019-02-15T17:15:37.690Z,11.45
2019-02-15T17:18:07.526Z,10.68
2019-02-15T17:20:37.249Z,12.73
2019-02-15T17:23:07.027Z,12.90
2019-02-15T17:25:36.848Z,12.00
2019-02-15T17:28:06.559Z,12.63
2019-02-15T17:30:37.404Z,9.70
2019-02-15T17:33:07.107Z,11.12
2019-02-15T17:35:36.983Z,11.38
2019-02-15T17:38:06.755Z,12.43
2019-02-15T17:40:36.662Z,10.93
2019-02-15T17:43:06.487Z,29.20
2019-02-15T17:45:36.305Z,20.57
2019-02-15T17:48:06.150Z,15.43
2019-02-15T17:50:35.946Z,14.90
2019-02-15T17:53:05.834Z,15.83
2019-02-15T17:55:36.594Z,12.40
2019-02-15T17:58:06.471Z,11.68
2019-02-15T18:00:36.452Z,11.70
2019-02-15T18:03:06.214Z,12.15
2019-02-15T18:05:36.031Z,12.82
2019-02-15T18:08:05.892Z,13.72
2019-02-15T18:10:35.900Z,13.43
2019-02-15T18:13:05.719Z,12.50
2019-02-15T18:15:35.447Z,10.90
2019-02-15T18:18:05.446Z,9.93
2019-02-15T18:20:35.276Z,12.82
2019-02-15T18:23:05.282Z,11.73
2019-02-15T18:25:35.137Z,12.00
2019-02-15T18:28:05.025Z,14.55
2019-02-15T18:30:34.883Z,14.58
2019-02-15T18:33:04.623Z,18.57
2019-02-15T18:35:34.534Z,15.85
2019-02-15T18:38:04.395Z,15.63
2019-02-15T18:40:34.161Z,15.08
2019-02-15T18:43:04.178Z,17.98
2019-02-15T18:45:33.885Z,18.48
2019-02-15T18:48:03.755Z,18.50
2019-02-15T18:50:33.587Z,17.20
2019-02-15T18:53:03.467Z,18.90
2019-02-15T18:55:33.204Z,19.32
2019-02-15T18:58:03.023Z,16.82
2019-02-15T19:00:32.791Z,19.23
2019-02-15T19:03:02.931Z,18.67
2019-02-15T19:05:32.622Z,18.67
2019-02-15T19:08:02.462Z,19.48
2019-02-15T19:10:32.266Z,18.50
2019-02-15T19:13:02.481Z,17.87
2019-02-15T19:15:32.194Z,19.00
2019-02-15T19:18:02.073Z,17.10
2019-02-15T19:20:31.999Z,18.77
2019-02-15T19:23:02.067Z,20.75
2019-02-15T19:25:32.003Z,16.67
2019-02-15T19:28:02.539Z,18.65
2019-02-15T19:30:32.651Z,17.10
2019-02-15T19:33:02.411Z,17.98
2019-02-15T19:35:32.182Z,20.85
2019-02-15T19:38:02.106Z,18.32
2019-02-15T19:40:31.931Z,17.15
2019-02-15T19:43:02.099Z,16.55
2019-02-15T19:45:31.841Z,18.12
2019-02-15T19:48:01.715Z,17.77
2019-02-15T19:50:31.456Z,17.30
2019-02-15T19:53:01.446Z,20.15
2019-02-15T19:55:31.465Z,18.37
2019-02-15T19:58:01.426Z,36.38
2019-02-15T20:00:32.192Z,27.35
2019-02-15T20:03:02.044Z,27.70
2019-02-15T20:05:31.783Z,19.23
2019-02-15T20:08:01.571Z,19.75
2019-02-15T20:10:31.371Z,21.23
2019-02-15T20:13:01.235Z,21.12
2019-02-15T20:15:31.230Z,20.52
2019-02-15T20:18:00.993Z,19.80
2019-02-15T20:20:31.110Z,18.27
2019-02-15T20:23:01.265Z,19.80
2019-02-15T20:25:31.179Z,22.05
2019-02-15T20:28:02.945Z,22.32
2019-02-15T20:30:32.811Z,20.97
2019-02-15T20:33:02.743Z,21.70
2019-02-15T20:35:32.564Z,23.62
2019-02-15T20:38:02.342Z,23.62
2019-02-15T20:40:32.266Z,24.50
2019-02-15T20:43:02.101Z,22.95
2019-02-15T20:45:31.886Z,23.55
2019-02-15T20:48:01.690Z,21.57
2019-02-15T20:50:31.590Z,26.30
2019-02-15T20:53:01.287Z,19.48
2019-02-15T20:55:31.037Z,21.60
2019-02-15T20:58:01.027Z,23.75
2019-02-15T21:00:30.853Z,23.60
2019-02-15T21:03:00.611Z,24.18
2019-02-15T21:05:30.419Z,19.48
2019-02-15T21:08:00.214Z,23.87
2019-02-15T21:10:29.913Z,22.35
2019-02-15T21:12:59.759Z,24.72
2019-02-15T21:15:29.556Z,26.15
2019-02-15T21:17:59.378Z,24.18
2019-02-15T21:20:29.262Z,24.80
2019-02-15T21:22:59.120Z,23.55
2019-02-15T21:25:29.065Z,21.15
2019-02-15T21:27:58.786Z,22.07
2019-02-15T21:30:28.586Z,25.07
2019-02-15T21:32:58.459Z,24.07
2019-02-15T21:35:28.355Z,25.88
2019-02-15T21:37:58.140Z,22.40
2019-02-15T21:40:28.106Z,23.27
2019-02-15T21:42:57.879Z,30.62
2019-02-15T21:45:27.642Z,27.82
2019-02-15T21:47:57.363Z,29.70
2019-02-15T21:50:27.214Z,27.15
2019-02-15T21:52:57.087Z,28.35
2019-02-15T21:55:26.906Z,24.92
2019-02-15T21:58:01.362Z,28.85
2019-02-15T22:00:28.588Z,30.20
2019-02-15T22:02:58.418Z,29.27
2019-02-15T22:05:28.291Z,27.32
2019-02-15T22:07:58.063Z,25.85
2019-02-15T22:10:27.909Z,26.37
2019-02-15T22:12:57.802Z,26.85
2019-02-15T22:15:27.623Z,24.70
2019-02-15T22:17:57.483Z,27.17
2019-02-15T22:20:27.311Z,25.30
2019-02-15T22:22:57.137Z,22.82
2019-02-15T22:25:26.872Z,26.48
2019-02-15T22:27:56.675Z,26.35
2019-02-15T22:30:26.534Z,28.45
2019-02-15T22:32:56.334Z,26.10
2019-02-15T22:35:26.085Z,28.52
2019-02-15T22:37:55.875Z,32.33
2019-02-15T22:40:33.187Z,32.78
2019-02-15T22:43:17.755Z,28.75
2019-02-15T22:45:47.684Z,27.82
2019-02-15T22:48:19.097Z,26.60
2019-02-15T22:50:48.790Z,24.10
2019-02-15T22:53:18.676Z,28.55
2019-02-15T22:55:48.541Z,21.50
2019-02-15T22:58:18.608Z,24.72
2019-02-15T23:00:58.175Z,22.60
2019-02-15T23:03:28.399Z,24.43
2019-02-15T23:05:58.480Z,23.95
2019-02-15T23:08:28.333Z,25.08
2019-02-15T23:10:58.066Z,24.00
2019-02-15T23:13:27.806Z,24.45
2019-02-15T23:15:57.515Z,23.90
2019-02-15T23:18:27.430Z,25.50
2019-02-15T23:20:57.159Z,22.58
2019-02-15T23:23:26.926Z,23.27
2019-02-15T23:25:56.724Z,20.43
2019-02-15T23:28:26.599Z,23.25
2019-02-15T23:30:56.314Z,23.30
2019-02-15T23:33:27.146Z,23.32
2019-02-15T23:35:56.915Z,26.55
2019-02-15T23:38:26.700Z,29.83
2019-02-15T23:40:56.479Z,24.18
2019-02-15T23:43:26.279Z,34.48
2019-02-15T23:45:55.999Z,30.45
2019-02-15T23:48:25.800Z,33.92
2019-02-15T23:50:55.548Z,38.58
2019-02-15T23:53:25.359Z,33.38
2019-02-15T23:55:55.158Z,33.28
2019-02-15T23:58:25.864Z,36.85
